M I D A S
Marine Information and Data Acquisition System
Tripno 2040 of the Zeeleeuw from 2011-02-14 07:40:22 to 2011-02-14 15:44:08
Back to CruiseResearch ActivitiesStationsMapUnderway DataData graphs

EquipmentUnitsComment
TimeDGPSUTC
LatitudeDGPSDM.mWGS84
LongitudeDGPSDM.mWGS84
HeadingGyrodeg 
SOGDGPSknotsSpeed over ground
COGDGPSdegCourse over ground
DepthEcho soundermeters200 kHz
Missing or incorrect values are displayed as -999
Navigation data collected by the RV Zeeleeuw from 2011-02-14 07:12:17 to 2011-02-14 15:47:59
Time Latitude Longitude Heading SOG COG Depth
2011-02-14 07:13:22 51°13.665 2°55.959 126.4 -999 256 -999
2011-02-14 07:14:22 51°13.662 2°55.958 126.4 0.1 237 -999
2011-02-14 07:15:20 51°13.662 2°55.957 126.4 -999 238 10
2011-02-14 07:16:19 51°13.662 2°55.957 126.5 -999 75 10
2011-02-14 07:17:21 51°13.663 2°55.958 126.1 -999 124 -999
2011-02-14 07:18:22 51°13.663 2°55.957 126 -999 198 -999
2011-02-14 07:19:20 51°13.663 2°55.957 127 0.1 56 10
2011-02-14 07:20:21 51°13.662 2°55.957 128 -999 11 10.1
2011-02-14 07:21:22 51°13.663 2°55.959 128.1 0.1 11 10
2011-02-14 07:22:21 51°13.664 2°55.959 128.1 -999 28 10.1
2011-02-14 07:23:20 51°13.662 2°55.958 128.3 0.1 230 10.1
2011-02-14 07:24:19 51°13.662 2°55.959 128.4 0.1 34 10.1
2011-02-14 07:25:18 51°13.667 2°55.962 128.4 0.1 35 10.1
2011-02-14 07:26:19 51°13.663 2°55.958 128.4 0.1 38 10.1
2011-02-14 07:27:19 51°13.662 2°55.959 128.6 -999 71 10.2
2011-02-14 07:28:19 51°13.662 2°55.96 128.6 -999 241 10.1
2011-02-14 07:29:19 51°13.663 2°55.96 128.6 -999 227 10.1
2011-02-14 07:30:18 51°13.663 2°55.96 128.7 -999 208 10.1
2011-02-14 07:31:19 51°13.663 2°55.961 128.7 -999 134 10.1
2011-02-14 07:32:18 51°13.664 2°55.961 128.7 0.1 21 10.1
2011-02-14 07:33:19 51°13.663 2°55.961 128.7 0.1 103 9.9
2011-02-14 07:34:18 51°13.663 2°55.961 129.3 -999 230 9.9
2011-02-14 07:35:21 51°13.663 2°55.961 128.6 0.1 64 10.1
2011-02-14 07:36:22 51°13.662 2°55.961 115.8 0.1 220 -999
2011-02-14 07:37:21 51°13.666 2°55.938 109.7 2.6 293 -999
2011-02-14 07:38:22 51°13.684 2°55.837 100.8 4.4 282 -999
2011-02-14 07:39:21 51°13.69 2°55.747 83.2 2.3 269 13.8
2011-02-14 07:40:20 51°13.696 2°55.74 39.1 1 24 14.1
2011-02-14 07:41:19 51°13.729 2°55.736 340.4 3.3 334 14
2011-02-14 07:42:21 51°13.801 2°55.657 328.7 6.4 327 12.2
2011-02-14 07:43:19 51°13.903 2°55.573 336.9 7.5 335 12.9
2011-02-14 07:44:18 51°14.021 2°55.492 339.2 8.3 338 12.6
2011-02-14 07:45:19 51°14.159 2°55.394 336.4 9.6 333 12.5
2011-02-14 07:46:19 51°14.305 2°55.267 332.5 10.2 331 -999
2011-02-14 07:47:19 51°14.452 2°55.118 328.1 10.5 326 12.8
2011-02-14 07:48:19 51°14.609 2°54.973 330 11.1 334 13.5
2011-02-14 07:49:19 51°14.771 2°54.823 322.2 11.7 326 13.1
2011-02-14 07:50:18 51°14.938 2°54.642 321.5 12.8 325 12.2
2011-02-14 07:51:18 51°15.116 2°54.441 323.3 13.3 326 11.5
2011-02-14 07:52:18 51°15.292 2°54.234 320.6 13.1 323 11.9
2011-02-14 07:53:19 51°15.465 2°54.011 317.1 13.2 320 12.6
2011-02-14 07:54:19 51°15.628 2°53.783 314.3 13 316 13.2
2011-02-14 07:55:19 51°15.792 2°53.558 321.2 13.1 325 13.6
2011-02-14 07:56:18 51°15.985 2°53.402 331.5 13.2 334 13.7
2011-02-14 07:57:19 51°16.189 2°53.247 331 13.4 334 14
2011-02-14 07:58:19 51°16.389 2°53.097 334.7 13.5 338 14.2
2011-02-14 07:59:18 51°16.595 2°52.973 336.2 13.4 339 14
2011-02-14 08:00:19 51°16.804 2°52.836 335.2 13.3 337 11.6
2011-02-14 08:01:19 51°17.011 2°52.703 336.8 13.4 338 12.3
2011-02-14 08:02:18 51°17.23 2°52.655 357.7 13.9 358 11.9
2011-02-14 08:03:19 51°17.464 2°52.641 357.3 13.9 358 12.2
2011-02-14 08:04:19 51°17.694 2°52.629 356.5 13.8 357 12.3
2011-02-14 08:05:18 51°17.92 2°52.61 356.2 13.9 357 12.7
2011-02-14 08:06:19 51°18.153 2°52.587 355.5 13.9 357 13.1
2011-02-14 08:07:19 51°18.383 2°52.567 355.8 13.8 357 13.4
2011-02-14 08:08:18 51°18.609 2°52.546 355.4 13.8 357 14
2011-02-14 08:09:19 51°18.842 2°52.525 355.2 13.8 356 14.5
2011-02-14 08:10:18 51°19.068 2°52.506 355.2 13.9 356 15.6
2011-02-14 08:11:18 51°19.297 2°52.489 359.9 13.9 1 16.7
2011-02-14 08:12:19 51°19.527 2°52.451 343.5 13.6 345 17.7
2011-02-14 08:13:19 51°19.746 2°52.356 340 13.6 342 18
2011-02-14 08:14:19 51°19.96 2°52.243 340.1 13.6 342 18.6
2011-02-14 08:15:19 51°20.173 2°52.128 339.7 13.4 341 17.1
2011-02-14 08:16:19 51°20.359 2°52.036 339.4 10.9 343 17.2
2011-02-14 08:17:19 51°20.529 2°51.957 340.8 10.6 345 15.6
2011-02-14 08:18:19 51°20.673 2°51.875 332.5 8.6 339 16.7
2011-02-14 08:19:18 51°20.802 2°51.803 334.2 8.3 341 18.1
2011-02-14 08:20:19 51°20.93 2°51.721 326.6 8 334 19.8
2011-02-14 08:21:19 51°21.058 2°51.611 323.9 10.5 330 20.9
2011-02-14 08:22:19 51°21.233 2°51.441 325 12.9 329 23.6
2011-02-14 08:23:19 51°21.434 2°51.295 334.6 13.4 339 26
2011-02-14 08:24:19 51°21.655 2°51.247 0.8 13.7 4 26.4
2011-02-14 08:25:19 51°21.882 2°51.28 2.2 13.7 3 26.3
2011-02-14 08:26:18 51°22.106 2°51.319 7.4 13.8 8 25.3
2011-02-14 08:27:19 51°22.336 2°51.369 5.5 13.8 8 25.7
2011-02-14 08:28:19 51°22.564 2°51.414 3.7 13.8 5 25.2
2011-02-14 08:29:18 51°22.789 2°51.458 5.2 13.8 8 25.3
2011-02-14 08:30:19 51°23.021 2°51.498 4.4 13.8 6 24.2
2011-02-14 08:31:19 51°23.249 2°51.533 4 13.8 6 17.3
2011-02-14 08:32:19 51°23.477 2°51.57 5 13.8 6 17.5
2011-02-14 08:33:19 51°23.706 2°51.602 4.4 13.8 5 19.2
2011-02-14 08:34:19 51°23.934 2°51.633 3.9 13.7 5 18.3
2011-02-14 08:35:19 51°24.162 2°51.677 9.7 13.8 10 20.5
2011-02-14 08:36:19 51°24.388 2°51.751 11.1 13.9 10 21.4
2011-02-14 08:37:18 51°24.612 2°51.821 9.5 14 12 24
2011-02-14 08:38:19 51°24.844 2°51.895 11 14.1 13 24.3
2011-02-14 08:39:19 51°25.071 2°51.968 10.1 13.9 11 25
2011-02-14 08:40:18 51°25.295 2°52.038 10.1 14 12 27.6
2011-02-14 08:41:19 51°25.526 2°52.114 11.4 13.9 12 29.7
2011-02-14 08:42:18 51°25.749 2°52.185 10.1 13.9 11 27.8
2011-02-14 08:43:18 51°25.976 2°52.257 10.2 14 11 29.3
2011-02-14 08:44:19 51°26.207 2°52.329 9.5 13.9 11 29.6
2011-02-14 08:45:19 51°26.435 2°52.405 9.5 14 11 30.1
2011-02-14 08:46:18 51°26.659 2°52.467 2.6 13.7 2 29.9
2011-02-14 08:47:19 51°26.89 2°52.473 359.5 13.7 1 28.8
2011-02-14 08:48:19 51°27.118 2°52.482 359.4 13.6 -999 24.8
2011-02-14 08:49:19 51°27.345 2°52.525 14.8 13.9 15 22.7
2011-02-14 08:50:19 51°27.565 2°52.637 16.3 13.8 17 23.9
2011-02-14 08:51:19 51°27.787 2°52.745 16.7 13.9 17 23.5
2011-02-14 08:52:19 51°28.009 2°52.859 17.9 13.9 18 24.4
2011-02-14 08:53:19 51°28.231 2°52.966 16.8 14 17 25.2
2011-02-14 08:54:19 51°28.453 2°53.075 15.3 13.9 16 26.3
2011-02-14 08:55:18 51°28.673 2°53.182 16.2 13.9 16 27.7
2011-02-14 08:56:18 51°28.896 2°53.295 16.2 14 18 29.2
2011-02-14 08:57:18 51°29.119 2°53.408 16.9 14.1 16 30.5
2011-02-14 08:58:18 51°29.342 2°53.522 16.2 14.1 16 32.1
2011-02-14 08:59:19 51°29.568 2°53.642 18.5 14.1 21 32.7
2011-02-14 09:00:18 51°29.781 2°53.786 23.2 14.2 24 33.8
2011-02-14 09:01:18 51°29.998 2°53.932 22.6 14.1 22 33.6
2011-02-14 09:02:18 51°30.215 2°54.083 22.6 14.2 22 33.9
2011-02-14 09:03:18 51°30.431 2°54.23 22.2 14 22 37
2011-02-14 09:04:18 51°30.645 2°54.377 23.1 14.1 24 33
2011-02-14 09:05:18 51°30.86 2°54.517 21 14 20 17.7
2011-02-14 09:06:19 51°31.08 2°54.66 23.2 14.2 23 21.1
2011-02-14 09:07:18 51°31.295 2°54.794 22.2 14 23 21.4
2011-02-14 09:08:19 51°31.516 2°54.937 21.4 14.1 20 20.4
2011-02-14 09:09:18 51°31.731 2°55.068 21.7 14.2 19 22.3
2011-02-14 09:10:19 51°31.948 2°55.207 22.4 12.7 20 20.7
2011-02-14 09:11:18 51°32.105 2°55.305 22 9.3 22 24.1
2011-02-14 09:12:18 51°32.241 2°55.4 22.3 8.7 23 23.4
2011-02-14 09:13:18 51°32.374 2°55.464 0.9 8.2 7 21.8
2011-02-14 09:14:18 51°32.504 2°55.505 19 6.9 20 25.2
2011-02-14 09:15:19 51°32.586 2°55.536 349.7 3.9 3 25.8
2011-02-14 09:16:18 51°32.639 2°55.542 338.3 2.9 5 22.8
2011-02-14 09:17:19 51°32.679 2°55.547 328.7 2.1 4 27.9
2011-02-14 09:18:18 51°32.71 2°55.553 322.7 1.8 9 29.7
2011-02-14 09:19:18 51°32.736 2°55.562 317.7 1.5 12 29.1
2011-02-14 09:20:18 51°32.764 2°55.553 288.3 1.7 338 28.3
2011-02-14 09:21:18 51°32.785 2°55.514 273.5 2.7 293 28.5
2011-02-14 09:22:18 51°32.805 2°55.39 281.2 6.3 291 28.4
2011-02-14 09:23:18 51°32.884 2°55.246 314.4 8 322 26.9
2011-02-14 09:24:18 51°33.012 2°55.119 330.1 9.7 337 27.8
2011-02-14 09:25:18 51°33.171 2°55.153 31 10.3 32 26
2011-02-14 09:26:19 51°33.251 2°55.385 88.6 9.9 85 27.9
2011-02-14 09:27:18 51°33.218 2°55.624 124.9 9.1 117 28.6
2011-02-14 09:28:18 51°33.142 2°55.819 133.7 7.7 125 27
2011-02-14 09:29:19 51°33.085 2°55.994 125.6 6.8 115 25.8
2011-02-14 09:30:19 51°33.043 2°56.129 135.3 4.4 119 26.5
2011-02-14 09:31:18 51°33.015 2°56.208 148.4 2.7 119 26.4
2011-02-14 09:32:18 51°32.997 2°56.261 154.4 1.9 114 26.8
2011-02-14 09:33:18 51°32.987 2°56.306 155.5 1.7 101 26.9
2011-02-14 09:34:18 51°32.985 2°56.346 155.8 1.5 92 27.6
2011-02-14 09:35:19 51°32.987 2°56.381 160.8 1.2 83 27.5
2011-02-14 09:36:18 51°32.992 2°56.411 162.2 1.3 72 27.5
2011-02-14 09:37:19 51°33.001 2°56.442 161 1.2 62 26.9
2011-02-14 09:38:18 51°33.011 2°56.472 163 1.4 59 25
2011-02-14 09:39:19 51°33.023 2°56.502 164.8 1.3 55 26.3
2011-02-14 09:40:18 51°33.034 2°56.529 167 1.2 52 26.5
2011-02-14 09:41:18 51°33.047 2°56.557 164.5 1.3 55 26.8
2011-02-14 09:42:18 51°33.06 2°56.584 160 1.2 54 27.4
2011-02-14 09:43:18 51°33.073 2°56.612 154.9 1.4 51 27.3
2011-02-14 09:44:19 51°33.087 2°56.642 149.6 1.4 54 26
2011-02-14 09:45:18 51°33.101 2°56.672 143.3 1.4 54 27.4
2011-02-14 09:46:19 51°33.115 2°56.703 141 1.3 55 27.8
2011-02-14 09:47:18 51°33.128 2°56.733 142.4 1.3 58 26.9
2011-02-14 09:48:19 51°33.141 2°56.765 146.3 1.5 54 25.5
2011-02-14 09:49:18 51°33.153 2°56.795 148.6 1.4 56 26.9
2011-02-14 09:50:19 51°33.165 2°56.826 152.4 1.4 55 26.6
2011-02-14 09:51:18 51°33.178 2°56.855 155.7 1.4 57 25.6
2011-02-14 09:52:19 51°33.191 2°56.884 156.7 1.3 52 26.2
2011-02-14 09:53:19 51°33.204 2°56.912 159.1 1.3 55 26
2011-02-14 09:54:18 51°33.217 2°56.939 162.3 1.3 52 24.8
2011-02-14 09:55:19 51°33.231 2°56.967 163.5 1.3 52 25.1
2011-02-14 09:56:18 51°33.243 2°56.993 164.8 1.2 74 26.4
2011-02-14 09:57:18 51°33.238 2°57.015 194.1 0.8 147 26.6
2011-02-14 09:58:18 51°33.227 2°57.007 228.7 1 232 26.1
2011-02-14 09:59:18 51°33.213 2°56.975 226.5 1.8 235 23.6
2011-02-14 10:00:18 51°33.193 2°56.934 226.9 2.1 233 26.2
2011-02-14 10:01:18 51°33.17 2°56.891 226.5 2.1 232 25.3
2011-02-14 10:02:18 51°33.149 2°56.843 229.5 2.2 235 26.1
2011-02-14 10:03:18 51°33.128 2°56.794 235.7 2.2 251 24.6
2011-02-14 10:04:19 51°33.137 2°56.742 278.7 1.8 312 25.6
2011-02-14 10:05:18 51°33.161 2°56.716 287.1 1.5 332 26.3
2011-02-14 10:06:19 51°33.183 2°56.704 283.5 1.4 342 26.9
2011-02-14 10:07:18 51°33.207 2°56.687 283.7 1.7 330 26.6
2011-02-14 10:08:19 51°33.233 2°56.654 291.7 2.4 323 27.3
2011-02-14 10:09:18 51°33.283 2°56.634 352.6 3.7 4 28.1
2011-02-14 10:10:19 51°33.34 2°56.686 51.6 4 47 26
2011-02-14 10:11:18 51°33.358 2°56.777 109.2 3.4 91 27.2
2011-02-14 10:12:18 51°33.336 2°56.844 164.5 2.9 145 27.5
2011-02-14 10:13:19 51°33.281 2°56.877 175.8 4 163 26.4
2011-02-14 10:14:18 51°33.214 2°56.902 176.7 4.4 167 26.1
2011-02-14 10:15:18 51°33.141 2°56.925 178.9 4.6 170 24.8
2011-02-14 10:16:18 51°33.067 2°56.954 178 4.5 170 26
2011-02-14 10:17:18 51°32.995 2°56.981 165 3.9 150 25.7
2011-02-14 10:18:18 51°32.96 2°57.039 143.4 2.7 120 26
2011-02-14 10:19:18 51°32.946 2°57.098 130.7 2.2 102 25.2
2011-02-14 10:20:18 51°32.943 2°57.151 130.9 1.9 94 23.2
2011-02-14 10:21:18 51°32.944 2°57.194 136.6 1.4 85 23.6
2011-02-14 10:22:18 51°32.947 2°57.231 142.4 1.5 94 24
2011-02-14 10:23:18 51°32.946 2°57.29 105.6 3 83 21
2011-02-14 10:24:19 51°32.978 2°57.369 42.9 3.8 38 23.1
2011-02-14 10:25:18 51°33.037 2°57.39 340.3 3.6 349 24.2
2011-02-14 10:26:19 51°33.08 2°57.342 283.3 2.8 304 22.5
2011-02-14 10:27:18 51°33.079 2°57.207 257.8 7.6 262 23.8
2011-02-14 10:28:19 51°33.06 2°56.965 259.2 9.6 262 26.1
2011-02-14 10:29:18 51°33.041 2°56.714 263.3 9.8 268 26.1
2011-02-14 10:30:18 51°33.031 2°56.449 263.5 10.2 267 25.2
2011-02-14 10:31:18 51°33.042 2°56.186 271.9 8.5 277 27.2
2011-02-14 10:32:18 51°33.057 2°56.025 272.3 4.4 284 26.5
2011-02-14 10:33:18 51°33.07 2°55.944 266.5 2.4 288 27.8
2011-02-14 10:34:18 51°33.083 2°55.9 269.2 1.6 305 27.7
2011-02-14 10:35:19 51°33.1 2°55.873 271.4 1.4 322 27.5
2011-02-14 10:36:18 51°33.115 2°55.86 267.9 1 336 27
2011-02-14 10:37:19 51°33.13 2°55.857 263.4 0.8 4 28
2011-02-14 10:38:18 51°33.145 2°55.86 260.7 1 6 27.6
2011-02-14 10:39:19 51°33.162 2°55.869 263 1.1 21 28
2011-02-14 10:40:18 51°33.179 2°55.878 270.6 1 -999 26.5
2011-02-14 10:41:19 51°33.199 2°55.858 277.3 1.6 320 25.7
2011-02-14 10:42:18 51°33.217 2°55.837 273.4 1.2 333 25.3
2011-02-14 10:43:18 51°33.234 2°55.826 272.1 1 347 23.5
2011-02-14 10:44:18 51°33.249 2°55.822 267.9 0.9 355 25.3
2011-02-14 10:45:18 51°33.265 2°55.823 265.8 0.9 9 26.1
2011-02-14 10:46:18 51°33.28 2°55.827 267.6 0.9 10 27.2
2011-02-14 10:47:18 51°33.297 2°55.836 277.1 1.1 16 27.6
2011-02-14 10:48:18 51°33.315 2°55.848 290.9 1.3 29 27.6
2011-02-14 10:49:19 51°33.334 2°55.862 305.7 1.3 28 28.3
2011-02-14 10:50:18 51°33.353 2°55.877 320.2 1.2 25 28.5
2011-02-14 10:51:18 51°33.372 2°55.896 329.6 1.4 30 25.7
2011-02-14 10:52:18 51°33.392 2°55.916 335.4 1.3 30 26.8
2011-02-14 10:53:19 51°33.413 2°55.937 336.9 1.4 31 27.4
2011-02-14 10:54:18 51°33.433 2°55.953 334.3 1.7 14 28.2
2011-02-14 10:55:18 51°33.465 2°55.938 293.5 2.2 317 28.7
2011-02-14 10:56:18 51°33.473 2°55.89 239.9 1.8 250 29.4
2011-02-14 10:57:18 51°33.448 2°55.839 222.9 2.9 223 27.6
2011-02-14 10:58:18 51°33.407 2°55.778 220 3.7 220 26.6
2011-02-14 10:59:18 51°33.36 2°55.72 216.9 3.2 216 27.4
2011-02-14 11:00:18 51°33.323 2°55.678 214.7 2.2 215 24.7
2011-02-14 11:01:18 51°33.299 2°55.658 205.3 1.3 200 28.1
2011-02-14 11:02:18 51°33.286 2°55.656 196.2 0.5 171 28
2011-02-14 11:03:18 51°33.283 2°55.665 190.4 0.6 75 27.8
2011-02-14 11:04:18 51°33.289 2°55.681 184.8 0.9 43 27.6
2011-02-14 11:05:18 51°33.305 2°55.701 175.1 1.3 38 25.4
2011-02-14 11:06:18 51°33.321 2°55.722 162.1 1.3 40 26.5
2011-02-14 11:07:18 51°33.337 2°55.742 148.8 1.2 38 27.2
2011-02-14 11:08:18 51°33.353 2°55.762 135.1 1.3 43 27.2
2011-02-14 11:09:18 51°33.369 2°55.782 125.9 1.2 39 27.9
2011-02-14 11:10:18 51°33.384 2°55.803 117.3 1.2 43 27.5
2011-02-14 11:11:18 51°33.397 2°55.825 115 1.1 43 25.4
2011-02-14 11:12:18 51°33.411 2°55.851 117.5 1.5 68 26.3
2011-02-14 11:13:19 51°33.41 2°55.91 124.4 2.8 102 27.4
2011-02-14 11:14:18 51°33.393 2°55.989 129.2 3.5 113 27.3
2011-02-14 11:15:19 51°33.375 2°56.064 131.8 2.5 108 27
2011-02-14 11:16:18 51°33.365 2°56.117 138.4 1.8 106 27.8
2011-02-14 11:17:18 51°33.36 2°56.158 140.2 1.4 95 26
2011-02-14 11:18:18 51°33.36 2°56.192 143.1 1.2 88 26.6
2011-02-14 11:19:18 51°33.362 2°56.22 147.2 1.1 76 27.2
2011-02-14 11:20:18 51°33.368 2°56.245 150.5 0.9 69 27.8
2011-02-14 11:21:18 51°33.375 2°56.267 153.2 0.9 57 28
2011-02-14 11:22:18 51°33.384 2°56.288 154.5 1 53 27.1
2011-02-14 11:23:18 51°33.393 2°56.308 157.7 1 55 25.8
2011-02-14 11:24:18 51°33.405 2°56.327 159.1 0.9 47 27
2011-02-14 11:25:18 51°33.417 2°56.348 158.1 1 47 28.2
2011-02-14 11:26:18 51°33.429 2°56.366 156.8 0.9 42 28.1
2011-02-14 11:27:18 51°33.441 2°56.384 155.3 1.1 44 28.7
2011-02-14 11:28:18 51°33.453 2°56.401 153.6 1 46 28.9
2011-02-14 11:29:19 51°33.466 2°56.419 151.1 0.9 37 29.3
2011-02-14 11:30:18 51°33.478 2°56.436 149.5 1 46 29.5
2011-02-14 11:31:18 51°33.491 2°56.453 148.3 0.9 44 29.2
2011-02-14 11:32:18 51°33.504 2°56.47 145.8 1 37 28.7
2011-02-14 11:33:18 51°33.517 2°56.488 145 1 46 27.4
2011-02-14 11:34:18 51°33.53 2°56.504 144.5 1 45 27.2
2011-02-14 11:35:18 51°33.542 2°56.521 141.4 1 39 26.2
2011-02-14 11:36:18 51°33.555 2°56.538 138.2 1 43 26.9
2011-02-14 11:37:18 51°33.568 2°56.555 135.8 1 29 27.8
2011-02-14 11:38:18 51°33.58 2°56.572 134.3 1 38 28.4
2011-02-14 11:39:18 51°33.593 2°56.589 132.9 1.1 28 29.3
2011-02-14 11:40:18 51°33.603 2°56.61 138.3 1.1 83 28.4
2011-02-14 11:41:18 51°33.593 2°56.633 176.5 1.2 159 28.9
2011-02-14 11:42:18 51°33.57 2°56.621 221.9 1.8 228 27.8
2011-02-14 11:43:18 51°33.554 2°56.565 238.2 2.7 250 27.5
2011-02-14 11:44:18 51°33.53 2°56.499 226 2.9 236 27.1
2011-02-14 11:45:18 51°33.492 2°56.45 208.8 2.9 209 29
2011-02-14 11:46:18 51°33.446 2°56.425 197.5 3 192 28.8
2011-02-14 11:47:19 51°33.396 2°56.403 199.8 2.9 197 27
2011-02-14 11:48:18 51°33.361 2°56.382 206.1 1.8 208 26.6
2011-02-14 11:49:18 51°33.339 2°56.362 213.5 1.2 217 28.4
2011-02-14 11:50:18 51°33.329 2°56.347 218.8 0.6 231 28
2011-02-14 11:51:18 51°33.325 2°56.336 224.6 0.4 265 28.3
2011-02-14 11:52:18 51°33.327 2°56.328 229.7 0.3 293 28.2
2011-02-14 11:53:18 51°33.333 2°56.324 238 0.4 338 28.1
2011-02-14 11:54:18 51°33.343 2°56.319 250.2 0.8 348 28.5
2011-02-14 11:55:18 51°33.342 2°56.296 219.3 1.3 225 28.2
2011-02-14 11:56:18 51°33.312 2°56.302 158.9 2.5 141 27.1
2011-02-14 11:57:18 51°33.291 2°56.372 114.7 3.1 100 26.7
2011-02-14 11:58:18 51°33.287 2°56.454 106 3 90 27.8
2011-02-14 11:59:18 51°33.288 2°56.532 105.4 2.8 89 27.7
2011-02-14 12:00:18 51°33.291 2°56.603 102.6 2.5 81 28
2011-02-14 12:01:18 51°33.297 2°56.661 104.9 2 79 27
2011-02-14 12:02:18 51°33.303 2°56.708 111.5 1.6 76 26.5
2011-02-14 12:03:18 51°33.309 2°56.744 117.4 1.3 72 23.5
2011-02-14 12:04:18 51°33.316 2°56.773 122.4 1.1 66 25.9
2011-02-14 12:05:18 51°33.324 2°56.796 129.7 0.9 57 25.4
2011-02-14 12:06:18 51°33.332 2°56.816 135.7 0.8 55 26
2011-02-14 12:07:18 51°33.34 2°56.833 141.2 0.8 48 26.5
2011-02-14 12:08:18 51°33.35 2°56.849 141.2 0.8 42 27.2
2011-02-14 12:09:19 51°33.361 2°56.865 141.2 0.8 44 27.5
2011-02-14 12:10:18 51°33.371 2°56.878 145.9 0.8 40 27.8
2011-02-14 12:11:18 51°33.381 2°56.891 150.6 0.8 33 28
2011-02-14 12:12:18 51°33.392 2°56.903 152.9 0.9 32 28.1
2011-02-14 12:13:18 51°33.404 2°56.914 152.2 0.8 33 27.5
2011-02-14 12:14:19 51°33.417 2°56.925 148.2 1 29 27.7
2011-02-14 12:15:18 51°33.43 2°56.936 144.2 1 26 28.4
2011-02-14 12:16:18 51°33.444 2°56.946 139.1 0.9 23 28.1
2011-02-14 12:17:18 51°33.458 2°56.955 131.9 0.8 30 27.8
2011-02-14 12:18:19 51°33.463 2°56.982 126.4 1.4 95 28
2011-02-14 12:19:18 51°33.451 2°57.03 141.1 2.6 130 27.4
2011-02-14 12:20:18 51°33.408 2°57.039 203.3 3.2 207 27.5
2011-02-14 12:21:18 51°33.367 2°56.943 241 5.5 245 27.3
2011-02-14 12:22:18 51°33.317 2°56.802 236.6 6.6 239 24.9
2011-02-14 12:23:18 51°33.259 2°56.647 233.7 6.9 236 27.1
2011-02-14 12:24:18 51°33.191 2°56.503 230.1 6.4 233 27.1
2011-02-14 12:25:18 51°33.146 2°56.376 242.5 4.9 247 26.9
2011-02-14 12:26:18 51°33.119 2°56.272 238.2 3.5 245 27
2011-02-14 12:27:18 51°33.108 2°56.214 253.5 1.6 273 26.1
2011-02-14 12:28:18 51°33.117 2°56.178 271.4 1.4 306 26.5
2011-02-14 12:29:18 51°33.131 2°56.16 282.2 0.8 338 26.6
2011-02-14 12:30:18 51°33.145 2°56.157 290 0.8 355 26.4
2011-02-14 12:31:18 51°33.159 2°56.157 294.1 0.9 -999 26.8
2011-02-14 12:32:18 51°33.174 2°56.159 297 0.9 7 27.3
2011-02-14 12:33:18 51°33.189 2°56.163 298.8 0.9 8 26.8
2011-02-14 12:34:18 51°33.204 2°56.168 301 0.8 15 26.9
2011-02-14 12:35:18 51°33.218 2°56.173 301.7 0.9 16 27.5
2011-02-14 12:36:18 51°33.232 2°56.18 304.3 0.8 20 27.8
2011-02-14 12:37:18 51°33.246 2°56.188 308 0.9 23 27.8
2011-02-14 12:38:18 51°33.259 2°56.198 313.2 0.8 24 26.7
2011-02-14 12:39:18 51°33.272 2°56.207 316.7 0.8 27 27.1
2011-02-14 12:40:18 51°33.284 2°56.217 319 0.8 24 27.7
2011-02-14 12:41:18 51°33.296 2°56.225 318.7 0.8 22 27.8
2011-02-14 12:42:18 51°33.314 2°56.217 300.1 2.2 311 27.9
2011-02-14 12:43:18 51°33.306 2°56.142 222.4 3.5 224 27.7
2011-02-14 12:44:18 51°33.234 2°56.113 186.5 5.4 186 27.3
2011-02-14 12:45:18 51°33.153 2°56.099 191.1 4.2 190 26.6
2011-02-14 12:46:18 51°33.105 2°56.054 230.2 2.8 238 26.5
2011-02-14 12:47:18 51°33.101 2°56.006 268.1 0.9 307 25.3
2011-02-14 12:48:18 51°33.109 2°56.012 302.4 0.6 47 26
2011-02-14 12:49:19 51°33.117 2°56.023 315.8 0.6 34 26.8
2011-02-14 12:50:18 51°33.126 2°56.033 317.5 0.7 30 26.3
2011-02-14 12:51:18 51°33.136 2°56.043 319.3 0.7 31 24.5
2011-02-14 12:52:18 51°33.147 2°56.054 322.1 0.8 31 25.4
2011-02-14 12:53:18 51°33.159 2°56.064 326.7 0.8 28 25.6
2011-02-14 12:54:18 51°33.17 2°56.074 331 0.8 32 26.4
2011-02-14 12:55:18 51°33.183 2°56.085 332.5 0.8 28 26.9
2011-02-14 12:56:18 51°33.194 2°56.094 333 0.8 33 27
2011-02-14 12:57:18 51°33.207 2°56.102 330.2 0.9 21 27.2
2011-02-14 12:58:20 51°33.219 2°56.109 326.9 0.8 25 -999
2011-02-14 12:59:19 51°33.232 2°56.116 326.1 0.9 21 27.4
2011-02-14 13:00:18 51°33.244 2°56.122 323.2 0.8 21 27.7
2011-02-14 13:01:18 51°33.256 2°56.129 320.3 0.9 24 28.1
2011-02-14 13:02:18 51°33.268 2°56.135 317.4 0.7 12 27.9
2011-02-14 13:03:18 51°33.28 2°56.14 314 0.8 18 26.5
2011-02-14 13:04:18 51°33.293 2°56.145 310.9 0.9 14 27.2
2011-02-14 13:05:18 51°33.306 2°56.149 308.6 0.8 12 27.2
2011-02-14 13:06:18 51°33.319 2°56.155 308 0.8 19 27.8
2011-02-14 13:07:18 51°33.332 2°56.16 310 0.8 11 27.6
2011-02-14 13:08:18 51°33.344 2°56.166 312.7 0.7 16 27.2
2011-02-14 13:09:18 51°33.357 2°56.174 314.9 0.8 25 25.1
2011-02-14 13:10:18 51°33.369 2°56.182 318.2 0.9 22 26.3
2011-02-14 13:11:18 51°33.382 2°56.191 320.9 0.8 23 26.2
2011-02-14 13:12:18 51°33.394 2°56.199 323.2 0.8 24 27.1
2011-02-14 13:13:18 51°33.406 2°56.208 324.5 0.8 24 26.9
2011-02-14 13:14:18 51°33.418 2°56.217 324.1 0.8 21 27.5
2011-02-14 13:15:18 51°33.431 2°56.225 322.6 0.8 21 27.3
2011-02-14 13:16:18 51°33.443 2°56.231 320.6 0.8 19 26.6
2011-02-14 13:17:18 51°33.456 2°56.237 318.3 0.8 20 27.1
2011-02-14 13:18:18 51°33.468 2°56.244 317.1 0.8 19 27.1
2011-02-14 13:19:18 51°33.48 2°56.251 317.4 0.8 16 26.6
2011-02-14 13:20:18 51°33.491 2°56.258 315.6 0.7 17 27.8
2011-02-14 13:21:18 51°33.503 2°56.265 315.7 0.8 18 27.9
2011-02-14 13:22:18 51°33.517 2°56.268 310.8 1.3 339 28.9
2011-02-14 13:23:18 51°33.531 2°56.22 258.2 2.6 266 27.7
2011-02-14 13:24:18 51°33.495 2°56.168 194.8 3.7 195 28.6
2011-02-14 13:25:18 51°33.419 2°56.162 177.3 5.1 175 27.3
2011-02-14 13:26:18 51°33.33 2°56.178 177.9 5.6 178 27.6
2011-02-14 13:26:38 51°33.299 2°56.176 183.9 5.6 185 27.2
2011-02-14 13:27:38 51°33.207 2°56.147 192.6 5.7 192 26.7
2011-02-14 13:28:38 51°33.117 2°56.123 187 4.9 186 25.1
2011-02-14 13:29:38 51°33.056 2°56.089 214.8 3 218 24.8
2011-02-14 13:30:38 51°33.035 2°56.049 239.1 0.9 256 25.8
2011-02-14 13:31:39 51°33.041 2°56.051 276.2 0.6 34 -999
2011-02-14 13:32:40 51°33.048 2°56.059 293.6 0.5 42 23.7
2011-02-14 13:33:38 51°33.054 2°56.067 302.9 0.5 33 24.7
2011-02-14 13:34:38 51°33.061 2°56.075 308 0.5 37 24.9
2011-02-14 13:35:38 51°33.069 2°56.082 313.3 0.5 28 25.1
2011-02-14 13:36:38 51°33.076 2°56.088 317.6 0.5 30 26
2011-02-14 13:37:38 51°33.084 2°56.095 323.1 0.5 23 25.9
2011-02-14 13:38:38 51°33.091 2°56.102 328 0.5 31 25.8
2011-02-14 13:39:38 51°33.098 2°56.108 329.1 0.4 24 24.1
2011-02-14 13:40:38 51°33.105 2°56.115 328.6 0.6 32 24.2
2011-02-14 13:41:38 51°33.112 2°56.122 329.7 0.5 26 24.7
2011-02-14 13:42:38 51°33.119 2°56.128 328.9 0.5 30 25.1
2011-02-14 13:43:38 51°33.127 2°56.134 329.7 0.5 26 25.7
2011-02-14 13:44:38 51°33.134 2°56.14 329 0.5 31 26.1
2011-02-14 13:45:38 51°33.142 2°56.148 327.8 0.5 32 26.3
2011-02-14 13:46:38 51°33.149 2°56.152 326.5 0.5 27 26.6
2011-02-14 13:47:38 51°33.158 2°56.155 325.7 1.2 341 26.3
2011-02-14 13:48:38 51°33.195 2°56.109 309.3 3.8 311 26.7
2011-02-14 13:49:38 51°33.236 2°56.022 308.6 3.9 314 26.9
2011-02-14 13:50:38 51°33.288 2°55.989 2.8 3.3 3 27.5
2011-02-14 13:51:38 51°33.337 2°56.024 39.6 3 33 27.2
2011-02-14 13:52:38 51°33.369 2°56.067 55.4 2.1 48 26.4
2011-02-14 13:53:38 51°33.386 2°56.109 69.9 1.7 60 25.3
2011-02-14 13:54:38 51°33.396 2°56.145 80 1.4 67 26.6
2011-02-14 13:55:38 51°33.403 2°56.176 90.1 1.1 75 27
2011-02-14 13:56:38 51°33.406 2°56.201 101.3 0.8 83 27
2011-02-14 13:57:38 51°33.407 2°56.22 110.4 0.6 82 27
2011-02-14 13:58:38 51°33.407 2°56.235 119.3 0.5 82 26.7
2011-02-14 13:59:38 51°33.408 2°56.247 126.1 0.3 90 26.7
2011-02-14 14:00:38 51°33.409 2°56.257 129.9 0.3 85 26.7
2011-02-14 14:01:38 51°33.41 2°56.266 135 0.3 80 26.1
2011-02-14 14:02:38 51°33.411 2°56.274 141.9 0.4 66 24.8
2011-02-14 14:03:39 51°33.411 2°56.281 146.6 0.2 90 25.6
2011-02-14 14:04:38 51°33.41 2°56.29 150.6 1 140 25.2
2011-02-14 14:05:38 51°33.375 2°56.289 201.8 2.9 209 26.7
2011-02-14 14:06:38 51°33.353 2°56.211 271.7 4.2 276 26
2011-02-14 14:07:38 51°33.364 2°56.041 263.6 8.6 261 25.2
2011-02-14 14:08:38 51°33.32 2°55.781 253.8 11.6 254 26
2011-02-14 14:09:38 51°33.267 2°55.453 253.8 13.2 252 26.6
2011-02-14 14:10:38 51°33.163 2°55.146 234.5 13.1 235 23.7
2011-02-14 14:11:38 51°33.026 2°54.875 222.2 12.9 219 25.1
2011-02-14 14:12:38 51°32.826 2°54.752 194.2 12.9 196 23.5
2011-02-14 14:13:38 51°32.618 2°54.658 189.5 13 189 22.6
2011-02-14 14:14:38 51°32.401 2°54.63 184.1 13 185 22.4
2011-02-14 14:15:38 51°32.186 2°54.595 185.2 13.2 186 21.9
2011-02-14 14:16:38 51°31.971 2°54.56 185.2 13 186 19.2
2011-02-14 14:17:38 51°31.757 2°54.517 186.1 12.9 187 18.6
2011-02-14 14:18:38 51°31.541 2°54.478 185.8 13.3 187 19.4
2011-02-14 14:19:38 51°31.328 2°54.438 186.1 12.9 187 19.6
2011-02-14 14:20:38 51°31.113 2°54.396 186.5 13.1 187 17.6
2011-02-14 14:21:38 51°30.9 2°54.351 186.1 13 187 18.6
2011-02-14 14:22:38 51°30.684 2°54.303 186.1 13.2 187 27.7
2011-02-14 14:23:38 51°30.467 2°54.259 186.6 13.3 188 34.1
2011-02-14 14:24:38 51°30.249 2°54.219 186.6 13.2 188 32.6
2011-02-14 14:25:38 51°30.033 2°54.172 187 13.2 189 31.8
2011-02-14 14:26:38 51°29.815 2°54.126 185.8 13.2 186 31
2011-02-14 14:27:38 51°29.597 2°54.082 186.6 13.3 187 29.9
2011-02-14 14:28:38 51°29.379 2°54.037 187.3 13.2 189 28.1
2011-02-14 14:29:38 51°29.161 2°53.992 185.6 13.1 188 27
2011-02-14 14:30:38 51°28.943 2°53.948 185.9 13.2 187 25.8
2011-02-14 14:31:38 51°28.725 2°53.902 186.5 13.2 187 24.6
2011-02-14 14:32:38 51°28.508 2°53.856 186.1 13.3 187 24.2
2011-02-14 14:33:38 51°28.289 2°53.814 185.4 13.1 186 22.1
2011-02-14 14:34:38 51°28.07 2°53.781 184.5 13.1 186 21
2011-02-14 14:35:38 51°27.851 2°53.759 180.1 13.2 181 21.2
2011-02-14 14:36:38 51°27.63 2°53.742 180.8 13.2 181 20.8
2011-02-14 14:37:38 51°27.408 2°53.724 181.2 13.5 182 24.9
2011-02-14 14:38:38 51°27.187 2°53.699 182.5 13.4 185 23.7
2011-02-14 14:39:38 51°26.965 2°53.668 183.7 13.4 185 26.7
2011-02-14 14:40:38 51°26.745 2°53.642 182.5 13.2 184 30
2011-02-14 14:41:38 51°26.525 2°53.608 183.2 13.2 185 32.4
2011-02-14 14:42:38 51°26.305 2°53.575 184 13.4 185 31.9
2011-02-14 14:43:38 51°26.083 2°53.544 183.6 13.3 185 30.9
2011-02-14 14:44:38 51°25.862 2°53.514 183.5 13.4 185 27.8
2011-02-14 14:45:38 51°25.641 2°53.483 183.1 13.4 185 25.2
2011-02-14 14:46:38 51°25.42 2°53.453 183.5 13.3 185 21.7
2011-02-14 14:47:38 51°25.199 2°53.419 184.2 13.3 185 21.7
2011-02-14 14:48:38 51°24.978 2°53.389 183.2 13.2 185 19.3
2011-02-14 14:49:38 51°24.756 2°53.354 183.7 13.3 186 16.9
2011-02-14 14:50:38 51°24.535 2°53.324 183 13.3 184 19.7
2011-02-14 14:51:38 51°24.314 2°53.29 183 13.4 185 17.3
2011-02-14 14:52:38 51°24.092 2°53.256 182.9 13.3 185 18.6
2011-02-14 14:53:38 51°23.869 2°53.223 183.3 13.5 185 20.4
2011-02-14 14:54:38 51°23.646 2°53.19 183.7 13.5 186 21.6
2011-02-14 14:55:38 51°23.423 2°53.156 183.2 13.5 185 20.6
2011-02-14 14:56:38 51°23.2 2°53.122 182.5 13.4 185 20.5
2011-02-14 14:57:38 51°22.977 2°53.087 183.4 13.4 187 21.7
2011-02-14 14:58:38 51°22.756 2°53.055 183.7 13.4 186 22.2
2011-02-14 14:59:38 51°22.535 2°53.019 183.7 13.3 186 22.4
2011-02-14 15:00:38 51°22.314 2°52.979 182.9 13.4 186 23
2011-02-14 15:01:38 51°22.095 2°52.903 192.3 13.5 195 23
2011-02-14 15:02:38 51°21.877 2°52.817 190.9 13.5 194 21.1
2011-02-14 15:03:38 51°21.659 2°52.731 189.6 13.4 190 18.9
2011-02-14 15:04:38 51°21.438 2°52.695 182.3 13.3 186 17.2
2011-02-14 15:05:38 51°21.217 2°52.663 181.8 13.3 185 15.9
2011-02-14 15:06:38 51°20.996 2°52.629 181.8 13.2 185 14.5
2011-02-14 15:07:38 51°20.775 2°52.599 182 13.4 185 14.6
2011-02-14 15:08:38 51°20.553 2°52.565 181.9 13.4 185 14.9
2011-02-14 15:09:38 51°20.331 2°52.513 185.8 13.5 189 15.7
2011-02-14 15:10:38 51°20.107 2°52.465 184 13.5 187 15.7
2011-02-14 15:11:38 51°19.884 2°52.416 184.3 13.5 188 15.5
2011-02-14 15:12:38 51°19.66 2°52.377 181.8 13.5 185 15.3
2011-02-14 15:13:38 51°19.437 2°52.347 182.5 13.5 185 14.8
2011-02-14 15:14:38 51°19.212 2°52.317 181.3 13.5 184 14
2011-02-14 15:15:38 51°18.989 2°52.296 178 13.5 182 13.1
2011-02-14 15:16:38 51°18.765 2°52.278 179.4 13.4 183 12
2011-02-14 15:17:38 51°18.542 2°52.267 177.9 13.3 182 11.1
2011-02-14 15:18:38 51°18.318 2°52.265 177.9 13.5 182 10.6
2011-02-14 15:19:38 51°18.094 2°52.26 175.8 13.4 180 10.4
2011-02-14 15:20:38 51°17.87 2°52.254 178.4 13.5 181 10.3
2011-02-14 15:21:38 51°17.646 2°52.264 171.5 13.3 172 10.3
2011-02-14 15:22:38 51°17.436 2°52.367 154.7 13.1 158 10
2011-02-14 15:23:38 51°17.229 2°52.488 157.8 13.2 160 9.4
2011-02-14 15:24:38 51°17.023 2°52.606 156.1 13.2 159 9.4
2011-02-14 15:25:38 51°16.818 2°52.731 158.6 13.1 162 9
2011-02-14 15:26:38 51°16.613 2°52.863 153.3 13.4 157 11
2011-02-14 15:27:38 51°16.405 2°52.983 155.7 13.3 159 11.4
2011-02-14 15:28:38 51°16.198 2°53.102 155.2 13.2 158 11.3
2011-02-14 15:29:38 51°15.997 2°53.24 151 13.1 155 11.1
2011-02-14 15:30:38 51°15.808 2°53.41 144.8 13.1 150 11
2011-02-14 15:31:38 51°15.63 2°53.602 140.4 12.9 144 10.6
2011-02-14 15:32:38 51°15.456 2°53.803 140.3 12.9 142 10
2011-02-14 15:33:38 51°15.288 2°54.016 139.4 12.8 143 9.3
2011-02-14 15:34:38 51°15.12 2°54.231 137.9 13 141 9.3
2011-02-14 15:35:38 51°14.955 2°54.448 138.2 12.9 141 10
2011-02-14 15:36:38 51°14.789 2°54.668 138 12.8 141 11.2
2011-02-14 15:37:38 51°14.626 2°54.877 137.3 12.4 142 10.7
2011-02-14 15:38:38 51°14.462 2°55.077 140.7 12.3 142 10
2011-02-14 15:39:38 51°14.304 2°55.256 146.1 10.4 147 9.8
2011-02-14 15:40:38 51°14.176 2°55.377 151.4 8.1 152 9.8
2011-02-14 15:41:40 51°14.055 2°55.468 155.6 7.7 156 9.6
2011-02-14 15:42:39 51°13.944 2°55.548 156.5 7 156 10.2
2011-02-14 15:43:38 51°13.84 2°55.623 154.8 7 153 10
2011-02-14 15:44:38 51°13.754 2°55.726 136.4 5.8 135 8.7
2011-02-14 15:45:38 51°13.7 2°55.83 127 4.5 124 8.2
2011-02-14 15:46:38 51°13.67 2°55.922 111.2 3.2 109 7.3
2011-02-14 15:47:38 51°13.662 2°55.959 126 -999 314 7.3